Time;durP1;ratioP1;P1;durP2;ratioP2;P2;SDS_P1;SDS_P2;PMS_P1;PMS_P2;Temp;Humidity;BMP_temperature;BMP_pressure;BME280_temperature;BME280_humidity;BME280_pressure;Samples;Min_cycle;Max_cycle;Signal;HPM_P1;HPM_P2
2023/06/07 00:00:36;;;;;;;17.10;15.50;;;;;;;17.27;100.00;98917.56;109411;1253;65922;-71
2023/06/07 00:03:23;;;;;;;16.70;15.20;;;;;;;17.26;100.00;98918.02;109396;1253;62873;-70
2023/06/07 00:05:50;;;;;;;18.10;16.20;;;;;;;17.24;100.00;98916.57;109377;1253;65059;-70
2023/06/07 00:08:18;;;;;;;17.10;15.50;;;;;;;17.23;100.00;98920.46;109391;1253;59154;-70
2023/06/07 00:10:44;;;;;;;17.00;15.40;;;;;;;17.22;100.00;98918.40;109357;1253;59053;-70
2023/06/07 00:13:11;;;;;;;16.20;14.70;;;;;;;17.21;100.00;98918.85;109367;1253;65572;-70
2023/06/07 00:15:38;;;;;;;16.60;14.80;;;;;;;17.20;100.00;98920.05;109464;1253;61035;-70
2023/06/07 00:18:04;;;;;;;15.70;14.00;;;;;;;17.18;100.00;98922.35;109390;1253;65087;-69
2023/06/07 00:20:31;;;;;;;16.00;14.30;;;;;;;17.17;100.00;98920.01;109383;1253;59025;-70
2023/06/07 00:22:58;;;;;;;15.50;14.00;;;;;;;17.14;100.00;98920.95;109382;1253;59144;-70
2023/06/07 00:25:25;;;;;;;15.20;13.80;;;;;;;17.14;100.00;98915.11;109079;1253;66896;-69
2023/06/07 00:27:52;;;;;;;16.40;14.90;;;;;;;17.13;100.00;98909.81;109432;1253;60008;-70
2023/06/07 00:30:19;;;;;;;14.90;13.50;;;;;;;17.11;100.00;98911.04;109046;1253;64795;-70
2023/06/07 00:32:46;;;;;;;13.20;12.10;;;;;;;17.09;100.00;98908.50;109363;1253;59012;-70
2023/06/07 00:35:13;;;;;;;15.20;13.70;;;;;;;17.07;100.00;98908.70;109402;1253;59301;-69
2023/06/07 00:37:41;;;;;;;16.60;14.90;;;;;;;17.06;100.00;98905.75;109408;1253;66776;-70
2023/06/07 00:40:08;;;;;;;15.70;14.10;;;;;;;17.06;100.00;98905.56;109363;1253;61204;-70
2023/06/07 00:42:34;;;;;;;15.50;14.00;;;;;;;17.06;100.00;98905.97;109063;1253;63680;-70
2023/06/07 00:45:01;;;;;;;16.00;14.40;;;;;;;17.03;100.00;98905.48;109346;1253;58969;-71
2023/06/07 00:47:28;;;;;;;15.40;14.00;;;;;;;17.00;100.00;98905.23;109427;1253;59022;-71
2023/06/07 00:49:55;;;;;;;15.10;13.60;;;;;;;16.97;100.00;98903.33;109427;1253;66778;-70
2023/06/07 00:52:22;;;;;;;14.80;13.50;;;;;;;16.96;100.00;98904.02;109393;1253;59747;-70
2023/06/07 00:54:50;;;;;;;16.70;15.30;;;;;;;16.94;100.00;98902.77;109357;1253;64991;-69
2023/06/07 00:57:17;;;;;;;17.10;15.50;;;;;;;16.92;100.00;98904.20;109396;1253;59106;-69
2023/06/07 00:59:44;;;;;;;16.70;15.10;;;;;;;16.91;100.00;98901.65;109222;1253;59484;-71
2023/06/07 01:02:14;;;;;;;16.10;14.70;;;;;;;16.90;100.00;98901.67;109385;1253;66137;-71
2023/06/07 01:04:42;;;;;;;16.50;15.00;;;;;;;16.89;100.00;98904.24;109442;1253;60135;-71
2023/06/07 01:07:09;;;;;;;16.90;15.30;;;;;;;16.91;100.00;98904.45;109376;1253;65153;-69
2023/06/07 01:09:35;;;;;;;16.40;14.90;;;;;;;16.93;100.00;98902.35;109372;1253;59079;-69
2023/06/07 01:12:05;;;;;;;16.80;15.40;;;;;;;16.93;100.00;98901.05;109396;1253;59069;-69
2023/06/07 01:14:33;;;;;;;16.20;14.80;;;;;;;16.93;100.00;98901.42;109397;1253;66945;-69
2023/06/07 01:17:02;;;;;;;14.90;13.60;;;;;;;16.94;100.00;98905.14;109404;1253;60059;-69
2023/06/07 01:19:30;;;;;;;15.30;14.00;;;;;;;16.94;100.00;98903.19;109351;1253;65292;-70
2023/06/07 01:22:02;;;;;;;14.60;13.30;;;;;;;16.93;100.00;98904.48;109370;1253;59038;-70
2023/06/07 01:24:29;;;;;;;14.70;13.40;;;;;;;16.93;100.00;98905.39;109419;1253;59044;-70
2023/06/07 01:26:57;;;;;;;15.40;14.00;;;;;;;16.92;100.00;98903.83;109088;1253;66288;-69
2023/06/07 01:29:26;;;;;;;14.80;13.50;;;;;;;16.93;100.00;98908.20;109395;1253;61147;-69
2023/06/07 01:31:56;;;;;;;14.30;13.00;;;;;;;16.95;100.00;98901.02;109377;1253;64732;-70
2023/06/07 01:34:24;;;;;;;14.90;13.50;;;;;;;16.96;100.00;98899.33;109368;1253;59640;-69
2023/06/07 01:36:53;;;;;;;15.20;13.80;;;;;;;16.98;100.00;98897.40;109180;1253;59217;-70
2023/06/07 01:39:20;;;;;;;14.90;13.60;;;;;;;16.99;100.00;98894.77;109426;1253;65856;-69
2023/06/07 01:41:49;;;;;;;16.00;14.40;;;;;;;16.98;100.00;98892.85;109411;1253;60115;-70
2023/06/07 01:44:17;;;;;;;15.60;14.20;;;;;;;16.96;100.00;98893.39;109387;1253;64904;-69
2023/06/07 01:46:44;;;;;;;17.20;15.60;;;;;;;16.95;100.00;98893.90;109378;1253;58944;-70
2023/06/07 01:49:12;;;;;;;17.20;15.60;;;;;;;16.94;100.00;98893.83;109011;1253;59045;-69
2023/06/07 01:51:38;;;;;;;15.90;14.40;;;;;;;16.93;100.00;98896.22;109414;1253;66962;-70
2023/06/07 01:54:06;;;;;;;15.20;13.80;;;;;;;16.94;100.00;98893.63;109104;1253;59859;-69
2023/06/07 01:57:10;;;;;;;14.10;12.90;;;;;;;16.94;100.00;98895.20;109394;1253;64015;-70
2023/06/07 01:59:59;;;;;;;14.00;12.60;;;;;;;16.92;100.00;98896.49;109358;1253;58920;-70
2023/06/07 02:02:43;;;;;;;13.80;12.50;;;;;;;16.89;100.00;98894.06;109381;1253;59316;-70
2023/06/07 02:05:16;;;;;;;15.20;13.80;;;;;;;16.87;100.00;98893.86;109412;1253;67056;-70
2023/06/07 02:07:51;;;;;;;13.60;12.40;;;;;;;16.86;100.00;98895.94;109423;1253;59942;-70
2023/06/07 02:10:21;;;;;;;14.50;13.10;;;;;;;16.85;100.00;98893.17;109418;1253;65038;-71
2023/06/07 02:12:51;;;;;;;14.60;13.30;;;;;;;16.85;100.00;98887.64;109295;1253;59155;-70
2023/06/07 02:15:19;;;;;;;14.20;11.70;;;;;;;16.85;100.00;98886.36;109401;1253;58979;-70
2023/06/07 02:17:58;;;;;;;13.70;12.40;;;;;;;16.85;100.00;98889.79;109418;1253;66796;-70
2023/06/07 02:20:26;;;;;;;13.60;12.20;;;;;;;16.86;100.00;98889.81;109454;1253;60785;-70
2023/06/07 02:22:53;;;;;;;12.90;11.70;;;;;;;16.88;100.00;98889.14;109428;1253;63705;-70
2023/06/07 02:25:20;;;;;;;14.40;13.00;;;;;;;16.89;100.00;98890.42;109356;1253;59024;-70
2023/06/07 02:27:46;;;;;;;13.40;12.20;;;;;;;16.92;100.00;98890.59;109419;1253;58992;-70
2023/06/07 02:30:13;;;;;;;13.10;12.00;;;;;;;16.94;100.00;98888.81;109407;1253;65780;-71
2023/06/07 02:32:40;;;;;;;14.30;12.90;;;;;;;16.95;100.00;98888.35;109432;1253;61047;-70
2023/06/07 02:35:08;;;;;;;12.60;11.50;;;;;;;16.96;100.00;98885.18;109039;1253;64906;-69
2023/06/07 02:37:35;;;;;;;13.80;12.60;;;;;;;16.97;100.00;98884.52;109372;1253;59220;-69
2023/06/07 02:40:04;;;;;;;13.50;12.20;;;;;;;16.98;100.00;98884.10;109417;1253;59379;-69
2023/06/07 02:42:31;;;;;;;13.90;12.50;;;;;;;16.97;100.00;98884.13;109383;1253;66027;-70
2023/06/07 02:44:58;;;;;;;12.80;11.80;;;;;;;16.98;100.00;98884.23;109481;1253;60728;-70
2023/06/07 02:47:24;;;;;;;12.90;11.90;;;;;;;16.99;100.00;98887.98;109363;1253;64757;-70
2023/06/07 02:49:51;;;;;;;14.00;12.80;;;;;;;17.00;100.00;98887.65;109381;1253;59259;-70
2023/06/07 02:52:18;;;;;;;13.60;12.40;;;;;;;17.01;100.00;98890.20;109441;1253;59118;-69
2023/06/07 02:54:45;;;;;;;15.00;13.60;;;;;;;17.03;100.00;98891.09;109409;1253;66715;-69
2023/06/07 02:57:11;;;;;;;14.50;13.20;;;;;;;17.05;100.00;98891.77;109456;1253;60234;-68
2023/06/07 02:59:39;;;;;;;14.70;13.30;;;;;;;17.07;100.00;98894.55;109422;1253;64003;-69
2023/06/07 03:02:06;;;;;;;14.70;13.20;;;;;;;17.07;100.00;98895.58;109397;1253;59163;-70
2023/06/07 03:04:33;;;;;;;14.40;13.00;;;;;;;17.07;100.00;98897.93;109408;1253;59119;-71
2023/06/07 03:07:00;;;;;;;13.30;12.10;;;;;;;17.07;100.00;98896.65;109463;1253;66880;-71
2023/06/07 03:09:26;;;;;;;14.20;12.90;;;;;;;17.07;100.00;98895.37;109404;1253;60229;-69
2023/06/07 03:11:53;;;;;;;13.80;12.40;;;;;;;17.08;100.00;98889.55;109403;1253;65250;-71
2023/06/07 03:14:20;;;;;;;14.00;12.80;;;;;;;17.08;100.00;98892.10;109406;1253;58878;-71
2023/06/07 03:16:47;;;;;;;13.40;12.10;;;;;;;17.09;100.00;98889.08;109444;1253;58999;-71
2023/06/07 03:19:14;;;;;;;13.90;12.50;;;;;;;17.12;100.00;98886.01;109424;1253;65637;-71
2023/06/07 03:21:44;;;;;;;13.70;12.50;;;;;;;17.14;100.00;98885.77;109432;1253;60208;-70
2023/06/07 03:24:11;;;;;;;15.70;14.20;;;;;;;17.16;100.00;98890.27;109374;1253;64728;-71
2023/06/07 03:26:39;;;;;;;16.30;14.80;;;;;;;17.17;100.00;98890.83;109439;1253;59189;-71
2023/06/07 03:29:06;;;;;;;15.90;14.60;;;;;;;17.19;100.00;98893.71;109424;1253;59395;-70
2023/06/07 03:31:33;;;;;;;16.10;14.80;;;;;;;17.21;100.00;98888.14;109452;1253;65876;-70
2023/06/07 03:33:59;;;;;;;16.70;15.20;;;;;;;17.23;100.00;98890.43;109425;1253;60346;-70
2023/06/07 03:36:29;;;;;;;15.80;14.40;;;;;;;17.26;100.00;98890.40;109438;1253;63959;-70
2023/06/07 03:38:57;;;;;;;16.70;15.10;;;;;;;17.28;100.00;98892.65;109436;1253;58983;-70
2023/06/07 03:41:25;;;;;;;16.80;15.30;;;;;;;17.32;100.00;98897.67;109400;1253;59041;-70
2023/06/07 03:43:52;;;;;;;17.90;16.30;;;;;;;17.35;100.00;98898.34;109434;1253;66871;-69
2023/06/07 03:46:19;;;;;;;16.30;15.00;;;;;;;17.36;100.00;98898.23;109415;1253;60176;-70
2023/06/07 03:48:45;;;;;;;15.40;14.10;;;;;;;17.38;100.00;98899.83;109120;1253;65272;-68
2023/06/07 03:51:12;;;;;;;15.20;13.80;;;;;;;17.39;100.00;98899.37;109437;1253;58869;-69
2023/06/07 03:53:38;;;;;;;15.40;14.10;;;;;;;17.39;100.00;98898.29;109364;1253;59030;-69
2023/06/07 03:56:05;;;;;;;16.40;14.90;;;;;;;17.41;100.00;98897.01;109446;1253;66006;-69
2023/06/07 03:58:32;;;;;;;16.40;14.80;;;;;;;17.45;100.00;98899.52;109433;1253;59853;-70
2023/06/07 04:00:58;;;;;;;16.50;15.00;;;;;;;17.47;100.00;98901.84;109428;1253;65032;-70
2023/06/07 04:03:27;;;;;;;16.20;14.70;;;;;;;17.48;100.00;98904.61;109422;1253;59001;-70
2023/06/07 04:05:54;;;;;;;17.00;15.40;;;;;;;17.49;100.00;98906.48;109442;1253;59088;-71
2023/06/07 04:08:20;;;;;;;18.60;16.70;;;;;;;17.50;100.00;98900.56;109449;1253;66929;-70
2023/06/07 04:10:47;;;;;;;18.20;16.50;;;;;;;17.50;100.00;98896.27;109470;1253;61293;-70
2023/06/07 04:13:13;;;;;;;16.20;14.80;;;;;;;17.50;100.00;98898.27;109429;1253;65122;-70
2023/06/07 04:15:40;;;;;;;16.60;15.00;;;;;;;17.49;100.00;98899.13;109451;1253;59013;-69
2023/06/07 04:18:07;;;;;;;17.00;15.60;;;;;;;17.48;100.00;98901.52;109445;1253;58904;-70
2023/06/07 04:20:33;;;;;;;17.20;15.70;;;;;;;17.49;100.00;98903.81;109459;1253;65686;-70
2023/06/07 04:23:00;;;;;;;17.40;15.80;;;;;;;17.48;100.00;98907.42;109472;1253;59732;-70
2023/06/07 04:25:34;;;;;;;17.10;15.50;;;;;;;17.49;100.00;98909.37;109043;1253;65140;-70
2023/06/07 04:28:01;;;;;;;17.70;16.20;;;;;;;17.50;100.00;98911.14;109426;1253;58966;-70
2023/06/07 04:30:34;;;;;;;17.60;15.90;;;;;;;17.54;100.00;98910.61;109421;1253;59042;-70
2023/06/07 04:33:08;;;;;;;20.10;18.20;;;;;;;17.60;100.00;98910.75;109480;1253;66768;-70
2023/06/07 04:35:43;;;;;;;22.20;20.20;;;;;;;17.67;100.00;98909.42;109453;1253;60208;-70
2023/06/07 04:38:24;;;;;;;23.00;20.90;;;;;;;17.71;100.00;98909.89;109467;1253;65375;-69
2023/06/07 04:40:50;;;;;;;21.90;20.00;;;;;;;17.75;100.00;98908.44;109206;1253;59075;-70
2023/06/07 04:43:18;;;;;;;24.10;21.80;;;;;;;17.79;100.00;98909.48;109447;1253;58874;-70
2023/06/07 04:45:55;;;;;;;22.30;20.20;;;;;;;17.83;100.00;98912.20;109395;1253;66130;-70
2023/06/07 04:48:29;;;;;;;23.60;21.30;;;;;;;17.86;100.00;98914.54;109409;1253;59839;-70
2023/06/07 04:51:05;;;;;;;23.70;21.40;;;;;;;17.92;100.00;98912.31;108989;1253;64042;-70
2023/06/07 04:53:36;;;;;;;22.00;20.00;;;;;;;17.98;100.00;98913.72;109423;1253;59059;-70
2023/06/07 04:56:03;;;;;;;23.30;21.00;;;;;;;18.02;100.00;98913.16;109413;1253;59077;-70
2023/06/07 04:58:31;;;;;;;23.10;20.80;;;;;;;18.07;100.00;98916.30;109014;1253;66748;-70
2023/06/07 05:00:58;;;;;;;24.00;21.50;;;;;;;18.11;100.00;98914.96;109473;1253;59733;-69
2023/06/07 05:03:24;;;;;;;21.70;19.80;;;;;;;18.16;100.00;98915.53;109076;1253;65150;-69
2023/06/07 05:05:52;;;;;;;23.20;21.00;;;;;;;18.20;100.00;98915.00;109423;1253;58994;-70
2023/06/07 05:08:19;;;;;;;23.40;21.00;;;;;;;18.29;100.00;98913.90;109208;1253;59329;-69
2023/06/07 05:10:45;;;;;;;22.40;20.40;;;;;;;18.36;100.00;98916.40;109436;1253;66295;-69
2023/06/07 05:13:12;;;;;;;22.20;20.10;;;;;;;18.42;100.00;98914.23;109483;1253;61049;-69
2023/06/07 05:15:39;;;;;;;22.00;19.90;;;;;;;18.46;100.00;98912.54;109415;1253;64202;-69
2023/06/07 05:18:07;;;;;;;22.30;20.20;;;;;;;18.50;100.00;98910.75;109436;1253;58952;-70
2023/06/07 05:20:34;;;;;;;21.30;19.30;;;;;;;18.56;100.00;98909.12;109439;1253;58964;-71
2023/06/07 05:23:01;;;;;;;22.00;19.70;;;;;;;18.59;100.00;98910.47;108995;1253;65737;-70
2023/06/07 05:25:27;;;;;;;19.50;17.80;;;;;;;18.60;100.00;98912.23;109426;1253;59839;-70
2023/06/07 05:27:54;;;;;;;19.80;18.00;;;;;;;18.59;100.00;98915.66;109417;1253;64314;-70
2023/06/07 05:30:21;;;;;;;20.40;18.40;;;;;;;18.59;100.00;98916.64;109406;1253;59113;-70
2023/06/07 05:32:48;;;;;;;21.10;19.00;;;;;;;18.57;100.00;98916.68;109166;1253;59375;-70
2023/06/07 05:35:14;;;;;;;20.80;19.00;;;;;;;18.57;100.00;98918.77;109413;1253;67049;-69
2023/06/07 05:37:42;;;;;;;23.40;21.20;;;;;;;18.62;100.00;98916.35;109461;1253;60879;-70
2023/06/07 05:40:10;;;;;;;22.60;20.30;;;;;;;18.72;100.00;98915.89;109391;1253;65286;-70
2023/06/07 05:42:38;;;;;;;22.20;20.10;;;;;;;18.82;100.00;98916.61;109402;1253;59137;-69
2023/06/07 05:45:06;;;;;;;22.50;20.40;;;;;;;18.94;100.00;98919.55;109447;1253;59051;-70
2023/06/07 05:47:33;;;;;;;23.20;21.00;;;;;;;19.06;100.00;98921.17;108997;1253;67202;-70
2023/06/07 05:49:59;;;;;;;24.30;22.00;;;;;;;19.18;100.00;98919.26;109411;1253;59745;-70
2023/06/07 05:52:26;;;;;;;23.80;21.80;;;;;;;19.32;100.00;98916.88;109441;1253;65170;-70
2023/06/07 05:54:55;;;;;;;22.20;20.20;;;;;;;19.45;100.00;98920.36;109430;1253;59155;-70
2023/06/07 05:57:22;;;;;;;24.10;21.80;;;;;;;19.60;100.00;98920.80;109456;1253;59064;-70
2023/06/07 05:59:48;;;;;;;24.90;22.60;;;;;;;19.72;100.00;98920.44;109430;1253;66884;-70
2023/06/07 06:02:16;;;;;;;22.90;20.70;;;;;;;19.81;100.00;98925.48;109419;1253;61664;-69
2023/06/07 06:04:43;;;;;;;20.50;18.60;;;;;;;19.94;100.00;98931.41;109363;1253;65177;-69
2023/06/07 06:07:10;;;;;;;22.00;20.10;;;;;;;20.10;100.00;98929.36;109440;1253;59083;-70
2023/06/07 06:09:36;;;;;;;19.60;17.90;;;;;;;20.24;100.00;98931.66;109483;1253;58881;-69
2023/06/07 06:12:03;;;;;;;20.20;18.30;;;;;;;20.36;100.00;98938.52;109448;1253;66174;-70
2023/06/07 06:14:30;;;;;;;20.50;18.70;;;;;;;20.50;100.00;98941.26;109428;1253;61469;-70
2023/06/07 06:16:57;;;;;;;19.80;18.20;;;;;;;20.62;100.00;98938.73;109382;1253;65221;-70
2023/06/07 06:19:25;;;;;;;19.50;17.60;;;;;;;20.75;100.00;98937.13;109411;1253;59122;-70
2023/06/07 06:21:51;;;;;;;18.50;16.90;;;;;;;20.94;100.00;98935.69;109424;1253;58881;-70
2023/06/07 06:24:18;;;;;;;17.50;16.10;;;;;;;21.10;100.00;98930.61;109435;1253;67157;-69
2023/06/07 06:26:44;;;;;;;20.00;18.30;;;;;;;21.20;100.00;98932.48;109073;1253;60041;-70
2023/06/07 06:29:11;;;;;;;19.80;18.00;;;;;;;21.32;100.00;98932.52;109459;1253;63852;-68
2023/06/07 06:31:40;;;;;;;19.20;17.50;;;;;;;21.41;100.00;98929.23;109425;1253;59011;-69
2023/06/07 06:34:07;;;;;;;19.90;18.20;;;;;;;21.51;100.00;98928.66;109165;1253;59018;-69
2023/06/07 06:36:34;;;;;;;19.10;17.30;;;;;;;21.57;100.00;98927.39;109449;1253;67057;-69
2023/06/07 06:39:02;;;;;;;18.20;16.80;;;;;;;21.63;100.00;98928.42;109456;1253;60153;-69
2023/06/07 06:41:30;;;;;;;19.00;17.30;;;;;;;21.69;100.00;98928.80;109292;1253;145378;-69
2023/06/07 06:43:57;;;;;;;19.20;17.40;;;;;;;21.76;100.00;98927.46;109422;1253;58931;-69
2023/06/07 06:46:24;;;;;;;19.00;17.40;;;;;;;21.83;100.00;98930.18;109434;1253;58876;-69
2023/06/07 06:48:50;;;;;;;17.00;15.60;;;;;;;21.95;100.00;98932.66;109135;1253;67193;-69
2023/06/07 06:51:17;;;;;;;18.10;16.50;;;;;;;22.02;100.00;98930.73;109425;1253;61610;-68
2023/06/07 06:53:46;;;;;;;18.70;16.50;;;;;;;22.13;100.00;98929.99;109018;1253;62952;-69
2023/06/07 06:56:12;;;;;;;16.80;15.40;;;;;;;22.31;100.00;98925.23;109441;1253;59512;-68
2023/06/07 06:58:40;;;;;;;16.20;14.90;;;;;;;22.57;100.00;98926.36;109457;1253;59191;-68
2023/06/07 07:01:07;;;;;;;18.20;16.60;;;;;;;22.87;100.00;98925.39;108993;1259;65779;-68
2023/06/07 07:03:35;;;;;;;17.50;16.00;;;;;;;23.13;100.00;98926.77;109465;1253;59890;-68
2023/06/07 07:06:02;;;;;;;17.10;15.60;;;;;;;23.41;100.00;98927.33;109442;1253;62628;-68
2023/06/07 07:08:28;;;;;;;17.40;15.80;;;;;;;23.66;99.18;98925.63;109424;1253;59217;-69
2023/06/07 07:10:55;;;;;;;16.50;15.00;;;;;;;23.92;98.36;98927.33;109460;1253;59034;-69
2023/06/07 07:13:21;;;;;;;15.90;14.50;;;;;;;24.17;96.56;98930.70;109440;1253;58976;-69
2023/06/07 07:15:48;;;;;;;15.60;14.30;;;;;;;24.33;93.49;98925.97;109443;1253;59505;-69
2023/06/07 07:18:14;;;;;;;15.90;14.60;;;;;;;24.48;91.88;98928.54;109478;1253;58942;-69
2023/06/07 07:20:40;;;;;;;16.80;15.50;;;;;;;24.59;89.75;98928.58;109431;1253;58983;-69
2023/06/07 07:23:07;;;;;;;15.40;14.10;;;;;;;24.59;86.89;98932.77;109049;1253;59104;-68
2023/06/07 07:25:33;;;;;;;15.80;14.50;;;;;;;24.46;86.15;98932.87;109457;1253;59033;-69
2023/06/07 07:28:00;;;;;;;15.50;14.30;;;;;;;24.46;85.32;98932.13;109446;1253;59001;-69
2023/06/07 07:30:27;;;;;;;16.60;15.30;;;;;;;24.59;83.90;98934.53;109407;1253;59045;-68
2023/06/07 07:32:56;;;;;;;17.20;15.70;;;;;;;24.76;82.94;98933.89;109469;1253;58980;-68
2023/06/07 07:35:23;;;;;;;15.90;14.60;;;;;;;24.98;82.45;98931.44;109186;1253;59026;-68
2023/06/07 07:37:53;;;;;;;17.00;15.50;;;;;;;25.18;80.76;98934.02;109466;1253;65349;-68
2023/06/07 07:40:20;;;;;;;17.20;15.70;;;;;;;25.34;80.52;98933.34;109415;1253;60119;-69
2023/06/07 07:42:46;;;;;;;17.20;15.60;;;;;;;25.49;79.51;98929.58;109431;1253;59138;-69
2023/06/07 07:45:14;;;;;;;16.40;15.10;;;;;;;25.54;78.06;98930.03;109407;1253;59096;-68
2023/06/07 07:47:40;;;;;;;15.90;14.60;;;;;;;25.49;77.15;98930.79;109064;1253;59029;-69
2023/06/07 07:50:07;;;;;;;13.80;12.70;;;;;;;25.41;76.31;98933.14;109437;1253;58948;-69
2023/06/07 07:52:34;;;;;;;15.70;14.40;;;;;;;25.33;75.45;98937.15;109074;1253;59666;-68
2023/06/07 07:55:00;;;;;;;15.30;14.00;;;;;;;25.27;75.17;98936.23;109406;1253;59027;-68
2023/06/07 07:57:27;;;;;;;16.40;15.00;;;;;;;25.34;74.93;98935.83;109415;1255;58996;-68
2023/06/07 07:59:54;;;;;;;15.80;14.50;;;;;;;25.39;74.09;98934.81;109233;1253;59287;-68
2023/06/07 08:02:21;;;;;;;16.20;14.90;;;;;;;25.36;73.13;98936.29;109438;1253;64854;-69
2023/06/07 08:04:47;;;;;;;15.00;13.60;;;;;;;25.44;73.55;98936.60;109445;1253;60234;-68
2023/06/07 08:07:17;;;;;;;15.00;13.60;;;;;;;25.64;73.24;98933.77;109375;1253;62865;-69
2023/06/07 08:09:44;;;;;;;12.80;11.60;;;;;;;25.82;71.71;98938.59;109394;1253;58945;-68
2023/06/07 08:12:10;;;;;;;11.90;10.80;;;;;;;26.02;72.01;98937.73;109442;1254;58895;-68
2023/06/07 08:14:37;;;;;;;12.10;10.90;;;;;;;26.32;72.35;98938.44;109496;1253;66019;-68
2023/06/07 08:17:04;;;;;;;11.60;10.70;;;;;;;26.51;71.10;98939.77;109050;1253;58967;-68
2023/06/07 08:19:30;;;;;;;10.70;9.80;;;;;;;26.62;68.97;98941.61;109030;1253;63867;-69
2023/06/07 08:21:57;;;;;;;10.10;9.10;;;;;;;26.59;68.53;98940.67;109386;1258;59031;-69
2023/06/07 08:24:23;;;;;;;10.40;9.40;;;;;;;26.71;67.36;98940.77;109115;1259;59091;-69
2023/06/07 08:26:49;;;;;;;10.40;9.60;;;;;;;26.61;66.70;98940.09;109400;1253;59601;-70
2023/06/07 08:29:16;;;;;;;11.20;10.40;;;;;;;26.59;67.32;98937.77;109419;1257;59085;-69
2023/06/07 08:31:43;;;;;;;11.20;10.20;;;;;;;26.58;66.02;98940.30;109391;1254;64084;-69
2023/06/07 08:34:10;;;;;;;10.90;10.10;;;;;;;26.32;65.51;98941.50;109406;1258;58896;-68
2023/06/07 08:36:41;;;;;;;11.40;10.30;;;;;;;26.30;66.85;98939.45;109402;1253;59065;-69
2023/06/07 08:39:08;;;;;;;10.30;9.40;;;;;;;26.49;66.94;98939.63;109446;1253;66212;-69
2023/06/07 08:41:34;;;;;;;8.30;7.60;;;;;;;26.75;66.76;98937.46;109431;1253;59065;-69
2023/06/07 08:44:01;;;;;;;7.70;7.00;;;;;;;26.92;65.94;98937.02;109420;1254;64050;-69
2023/06/07 08:46:31;;;;;;;7.90;7.20;;;;;;;26.95;65.34;98941.10;109416;1257;59309;-68
2023/06/07 08:48:59;;;;;;;8.60;8.00;;;;;;;26.87;65.13;98940.30;109418;1254;59255;-69
2023/06/07 08:51:27;;;;;;;10.10;9.30;;;;;;;26.84;64.51;98941.00;109431;1254;66066;-69
2023/06/07 08:54:01;;;;;;;8.60;7.80;;;;;;;26.83;64.83;98940.96;109422;1253;60174;-69
2023/06/07 08:56:29;;;;;;;9.70;9.00;;;;;;;26.87;64.42;98940.33;109453;1253;63902;-68
2023/06/07 08:58:56;;;;;;;8.90;8.30;;;;;;;26.79;63.56;98936.83;109397;1258;58973;-69
2023/06/07 09:01:23;;;;;;;8.40;7.80;;;;;;;26.65;63.30;98934.55;109419;1254;59009;-70
2023/06/07 09:03:52;;;;;;;6.80;6.30;;;;;;;26.55;63.28;98936.30;109437;1253;64835;-69
2023/06/07 09:06:21;;;;;;;7.40;6.80;;;;;;;26.57;62.60;98936.13;109122;1254;59082;-69
2023/06/07 09:08:48;;;;;;;7.20;6.60;;;;;;;26.75;63.00;98935.44;109395;1257;64092;-69
2023/06/07 09:11:15;;;;;;;7.60;6.90;;;;;;;27.07;62.48;98933.06;109341;1253;59001;-69
2023/06/07 09:13:41;;;;;;;7.40;6.90;;;;;;;27.31;61.91;98933.88;109389;1253;59145;-69
2023/06/07 09:16:10;;;;;;;6.70;6.10;;;;;;;27.44;60.66;98933.48;109419;1254;66064;-69
2023/06/07 09:18:46;;;;;;;8.50;7.90;;;;;;;27.53;60.66;98934.26;109384;1254;60126;-69
2023/06/07 09:21:20;;;;;;;7.70;7.10;;;;;;;27.73;60.24;98937.29;109399;1254;73948;-68
2023/06/07 09:23:47;;;;;;;6.90;6.40;;;;;;;27.99;59.33;98935.17;109372;1254;59158;-68
2023/06/07 09:26:16;;;;;;;7.20;6.60;;;;;;;28.07;58.42;98928.34;109426;1253;58993;-69
2023/06/07 09:28:45;;;;;;;7.80;7.10;;;;;;;28.05;58.04;98929.48;109423;1253;65731;-69
2023/06/07 09:31:12;;;;;;;;;;;;;;;28.15;58.27;98926.83;109434;1254;60629;-69
2023/06/07 09:33:39;;;;;;;6.60;6.10;;;;;;;28.34;58.35;98925.76;109417;1254;64049;-68
2023/06/07 09:36:12;;;;;;;8.30;7.60;;;;;;;28.59;58.62;98925.17;109417;1253;58999;-68
2023/06/07 09:38:39;;;;;;;7.60;7.10;;;;;;;28.80;57.99;98926.09;109412;1254;58957;-68
2023/06/07 09:41:06;;;;;;;7.40;6.70;;;;;;;28.83;57.25;98926.02;109400;1253;66020;-69
2023/06/07 09:43:54;;;;;;;9.10;7.00;;;;;;;28.79;56.52;98922.38;109392;1253;60194;-69
2023/06/07 09:46:21;;;;;;;5.40;5.00;;;;;;;28.70;54.97;98921.13;109410;1254;63938;-69
2023/06/07 09:48:52;;;;;;;4.30;3.90;;;;;;;28.52;54.74;98918.44;109404;1254;59097;-69
2023/06/07 09:51:20;;;;;;;3.80;3.50;;;;;;;28.58;54.41;98917.81;109381;1254;59055;-68
2023/06/07 09:53:56;;;;;;;4.10;3.80;;;;;;;28.50;53.35;98915.61;109446;1254;66107;-69
2023/06/07 09:56:24;;;;;;;4.10;3.40;;;;;;;28.38;53.09;98916.98;109434;1253;59031;-68
2023/06/07 09:59:09;;;;;;;3.40;3.10;;;;;;;28.14;52.28;98911.49;109428;1254;64078;-67
2023/06/07 10:01:47;;;;;;;4.60;4.20;;;;;;;28.03;52.95;98910.11;109347;1253;59417;-68
2023/06/07 10:04:14;;;;;;;3.90;3.60;;;;;;;28.14;53.21;98905.21;109403;1253;59433;-68
2023/06/07 10:06:45;;;;;;;3.50;2.90;;;;;;;28.33;52.86;98902.92;109385;1254;66021;-69
2023/06/07 10:09:12;;;;;;;3.10;2.80;;;;;;;28.37;51.63;98905.77;108946;1261;59381;-68
2023/06/07 10:11:43;;;;;;;3.20;2.90;;;;;;;28.40;51.43;98904.44;108963;1259;64416;-68
2023/06/07 10:14:11;;;;;;;3.50;3.10;;;;;;;28.45;51.57;98901.00;108885;1260;58986;-69
2023/06/07 10:16:46;;;;;;;3.20;3.00;;;;;;;28.43;50.45;98896.63;108964;1259;58941;-68
2023/06/07 10:19:13;;;;;;;3.10;2.90;;;;;;;28.55;51.37;98893.52;108966;1259;66063;-69
2023/06/07 10:21:45;;;;;;;2.80;2.60;;;;;;;28.92;51.33;98896.20;108982;1261;59001;-69
2023/06/07 10:24:18;;;;;;;3.20;3.00;;;;;;;29.28;50.71;98893.65;108976;1259;64127;-69
2023/06/07 10:26:54;;;;;;;4.90;2.80;;;;;;;29.42;49.67;98894.45;108941;1260;59029;-69
2023/06/07 10:29:30;;;;;;;2.90;2.70;;;;;;;29.45;49.21;98893.44;108980;1259;59267;-69
2023/06/07 10:32:25;;;;;;;3.00;2.70;;;;;;;29.40;48.15;98889.02;108982;1259;64908;-69
2023/06/07 10:34:54;;;;;;;2.60;2.40;;;;;;;29.25;48.11;98886.31;108968;1259;60345;-69
2023/06/07 10:37:22;;;;;;;2.60;2.40;;;;;;;29.22;47.99;98889.08;108932;1259;64055;-69
2023/06/07 10:39:49;;;;;;;2.40;2.20;;;;;;;29.10;47.91;98880.36;109093;1254;59030;-67
2023/06/07 10:42:16;;;;;;;2.50;2.40;;;;;;;28.97;47.93;98879.80;109411;1253;59013;-69
2023/06/07 10:44:43;;;;;;;2.90;2.30;;;;;;;28.82;48.02;98880.50;109337;1254;75826;-69
2023/06/07 10:47:22;;;;;;;4.30;2.50;;;;;;;28.64;47.77;98879.03;109394;1254;60245;-68
2023/06/07 10:49:49;;;;;;;4.20;2.70;;;;;;;28.63;48.40;98878.29;109377;1254;64040;-68
2023/06/07 10:52:15;;;;;;;3.70;2.40;;;;;;;28.88;48.35;98871.21;109399;1254;59154;-68
2023/06/07 10:54:43;;;;;;;2.90;2.70;;;;;;;29.06;48.50;98870.39;109299;1254;59354;-69
2023/06/07 10:57:10;;;;;;;3.20;2.70;;;;;;;29.13;48.30;98870.85;109053;1253;64577;-69
2023/06/07 10:59:38;;;;;;;3.00;2.80;;;;;;;29.02;48.03;98874.29;109384;1253;59162;-70
2023/06/07 11:02:26;;;;;;;4.40;2.50;;;;;;;28.75;47.77;98872.79;109409;1254;64043;-69
2023/06/07 11:04:53;;;;;;;3.00;2.70;;;;;;;28.29;47.97;98873.84;109384;1254;59043;-69
2023/06/07 11:07:22;;;;;;;3.80;2.50;;;;;;;27.73;48.47;98870.98;109412;1253;58998;-70
2023/06/07 11:10:10;;;;;;;2.30;2.10;;;;;;;27.44;49.14;98872.72;109392;1253;64855;-67
2023/06/07 11:12:46;;;;;;;2.30;2.10;;;;;;;27.36;49.61;98876.20;109400;1253;60742;-68
2023/06/07 11:15:20;;;;;;;2.50;2.40;;;;;;;27.38;49.45;98871.42;109357;1253;63781;-69